»·PEaware :: N475RS KGPI-KGEG

N475RS :: KGPI-KGEG

FLIGHT INFORMATION

Flight Status: Arrived
Operator: Privately registered:
United States
More flights under this callsign
Pilot: Aker J. (16898)
Aircraft: EMBRAER EMB-190/195
(E190)
More flights by this aircraft type
Origin: KGPI Glacier Park Intl
United States
Destination: KGEG Spokane Intl
United States
More flights between these airports :: More routes between these airports
Route: +KILLY1 RIDDG GEG
File this flight plan on PilotEdge
Remarks:
Altitude:
(Current/Filed)
36,000ft
Speed:
(Current/Filed)
450kts
Departed: 18-Mar-18 12:53 PM
Arrived: 18-Mar-18 01:23 PM
Distance/Time
Traveled:
138nm/0:30
Distance/Time
To Go:
Arrived

Flight Plot

Page will automatically refresh every two minutes.

Flight plan parsing failed; only flown route is shown


Map Options




Map Legend


Flown Route
Filed Route
Departure Airport
Arrival Airport
Navaid (VOR, NDB)
Fix

Horizontal Profiles

Position Reports

Time Latitude Longitude Heading Altitude Ground
Speed
18-Mar-18 12:37 48.313436 -114.248222 28 2974ft 0kts
18-Mar-18 12:38 48.313436 -114.248222 28 2974ft 0kts
18-Mar-18 12:39 48.313436 -114.248222 28 2974ft 0kts
18-Mar-18 12:40 48.313436 -114.248222 28 2974ft 0kts
18-Mar-18 12:41 48.313436 -114.248222 28 2974ft 0kts
18-Mar-18 12:42 48.313436 -114.248222 28 2974ft 0kts
18-Mar-18 12:43 48.313436 -114.248222 28 2974ft 0kts
18-Mar-18 12:44 48.313436 -114.248222 28 2974ft 0kts
18-Mar-18 12:45 48.313436 -114.248222 28 2974ft 0kts
18-Mar-18 12:46 48.313436 -114.248222 28 2974ft 0kts
18-Mar-18 12:47 48.313870 -114.248023 12 2975ft 9kts
18-Mar-18 12:48 48.315919 -114.247742 35 2977ft 1kts
18-Mar-18 12:49 48.315992 -114.247664 35 2977ft 0kts
18-Mar-18 12:50 48.318031 -114.245645 12 2977ft 10kts
18-Mar-18 12:51 48.318290 -114.245648 349 2977ft 6kts
18-Mar-18 12:52 48.301591 -114.264466 213 3242ft 206kts
18-Mar-18 12:53 48.258020 -114.356573 258 5409ft 252kts
18-Mar-18 12:54 48.230644 -114.435811 227 7659ft 270kts
18-Mar-18 12:55 48.195892 -114.487659 225 9415ft 274kts
18-Mar-18 12:56 48.158462 -114.542966 240 11222ft 292kts
18-Mar-18 12:57 48.139827 -114.660075 261 14456ft 323kts
18-Mar-18 12:58 48.118563 -114.802298 256 17923ft 380kts
18-Mar-18 12:59 48.091181 -114.963870 256 21584ft 417kts
18-Mar-18 13:00 48.062564 -115.130372 256 21997ft 400kts
18-Mar-18 13:01 48.034906 -115.290089 257 22045ft 402kts
18-Mar-18 13:02 48.005824 -115.456451 257 22195ft 417kts
18-Mar-18 13:03 47.976840 -115.620662 257 22103ft 413kts
18-Mar-18 13:04 47.948020 -115.782423 256 22334ft 418kts
18-Mar-18 13:05 47.917844 -115.950193 256 22212ft 420kts
18-Mar-18 13:06 47.888659 -116.111236 256 21424ft 404kts
18-Mar-18 13:07 47.860587 -116.264525 256 18938ft 352kts
18-Mar-18 13:08 47.836148 -116.397148 256 15929ft 324kts
18-Mar-18 13:09 47.812424 -116.524905 256 12901ft 303kts
18-Mar-18 13:10 47.789902 -116.645755 255 9861ft 277kts
18-Mar-18 13:11 47.771319 -116.744710 252 7126ft 252kts
18-Mar-18 13:12 47.767201 -116.838268 273 7027ft 219kts
18-Mar-18 13:13 47.773665 -116.930557 273 6645ft 235kts
18-Mar-18 13:14 47.780351 -117.028570 273 5165ft 241kts
18-Mar-18 13:15 47.786552 -117.121734 271 5037ft 225kts
18-Mar-18 13:16 47.770887 -117.209574 254 5037ft 224kts
18-Mar-18 13:17 47.755696 -117.298930 254 4828ft 224kts
18-Mar-18 13:18 47.741991 -117.371652 242 4045ft 215kts
18-Mar-18 13:19 47.703231 -117.418330 223 4018ft 196kts
18-Mar-18 13:20 47.667717 -117.467322 218 3583ft 207kts
18-Mar-18 13:21 47.635005 -117.512481 225 2425ft 121kts
18-Mar-18 13:22 47.618858 -117.536713 210 2369ft 22kts
18-Mar-18 13:23 47.618190 -117.536648 135 2370ft 0kts
18-Mar-18 13:24 47.618175 -117.536624 132 2370ft 2kts
18-Mar-18 13:25 47.618062 -117.529489 46 2371ft 9kts
18-Mar-18 13:26 47.618421 -117.529156 30 2370ft 0kts
18-Mar-18 13:27 47.618421 -117.529156 30 2370ft 0kts
18-Mar-18 13:28 47.618421 -117.529156 30 2370ft 0kts
18-Mar-18 13:29 47.618421 -117.529156 30 2370ft 0kts
18-Mar-18 13:30 47.618421 -117.529156 30 2370ft 0kts
18-Mar-18 13:31 47.618421 -117.529156 30 2370ft 0kts
18-Mar-18 13:32 47.625866 -117.535087 217 2358ft 0kts
18-Mar-18 13:33 47.625866 -117.535087 217 2358ft 0kts
18-Mar-18 13:34 47.625866 -117.535087 217 2358ft 0kts
18-Mar-18 13:35 47.625866 -117.535087 217 2358ft 0kts
18-Mar-18 13:36 47.625866 -117.535087 217 2358ft 0kts

Navigation Log

Ident Type
Flight plan parsing failed, navigation log unavailable